Time;durP1;ratioP1;P1;durP2;ratioP2;P2;SDS_P1;SDS_P2;PMS_P1;PMS_P2;Temp;Humidity;BMP_temperature;BMP_pressure;BME280_temperature;BME280_humidity;BME280_pressure;Samples;Min_cycle;Max_cycle;Signal;HPM_P1;HPM_P2
2022/01/27 00:00:49;;;;;;;51.50;23.45;;;5.50;99.90;;;;;;5031265;28;20049;-53
2022/01/27 00:03:32;;;;;;;46.33;23.00;;;5.50;99.90;;;;;;5031736;28;20048;-51
2022/01/27 00:06:06;;;;;;;49.40;23.58;;;5.60;99.90;;;;;;5047436;28;20048;-52
2022/01/27 00:08:42;;;;;;;45.63;22.58;;;5.50;99.90;;;;;;5051396;28;20049;-54
2022/01/27 00:11:14;;;;;;;50.35;22.33;;;5.50;99.90;;;;;;5050696;28;20053;-54
2022/01/27 00:13:58;;;;;;;48.50;22.08;;;5.50;99.90;;;;;;5042000;28;20289;-54
2022/01/27 00:16:27;;;;;;;39.75;20.83;;;5.60;99.90;;;;;;5033110;28;20524;-53
2022/01/27 00:18:54;;;;;;;41.33;21.48;;;5.60;99.90;;;;;;5023617;28;20033;-53
2022/01/27 00:21:26;;;;;;;41.38;21.65;;;5.60;99.90;;;;;;5034557;28;20052;-52
2022/01/27 00:23:52;;;;;;;41.90;21.48;;;5.60;99.90;;;;;;5032872;28;20037;-53
2022/01/27 00:26:19;;;;;;;43.50;22.45;;;5.60;99.90;;;;;;5034494;28;20045;-52
2022/01/27 00:28:46;;;;;;;44.63;22.20;;;5.60;99.90;;;;;;5033941;28;20073;-51
2022/01/27 00:31:13;;;;;;;45.17;21.42;;;5.60;99.90;;;;;;5034402;28;20422;-51
2022/01/27 00:33:38;;;;;;;42.85;21.92;;;5.60;99.90;;;;;;5033650;28;20135;-51
2022/01/27 00:36:04;;;;;;;39.40;20.70;;;5.60;99.90;;;;;;5034275;28;20099;-50
2022/01/27 00:38:31;;;;;;;43.28;19.75;;;5.60;99.90;;;;;;5034166;28;20118;-51
2022/01/27 00:40:56;;;;;;;41.95;21.00;;;5.70;99.90;;;;;;5034124;28;20510;-51
2022/01/27 00:43:23;;;;;;;42.30;20.27;;;5.60;99.90;;;;;;5034032;28;20069;-51
2022/01/27 00:45:48;;;;;;;42.05;21.65;;;5.60;99.90;;;;;;5033727;28;20053;-50
2022/01/27 00:48:16;;;;;;;37.33;20.08;;;5.60;99.90;;;;;;5033844;28;20048;-50
2022/01/27 00:50:42;;;;;;;39.15;21.00;;;5.60;99.90;;;;;;5033965;28;20045;-50
2022/01/27 00:53:26;;;;;;;39.28;19.67;;;5.60;99.90;;;;;;5032757;28;20069;-52
2022/01/27 00:55:53;;;;;;;36.13;19.70;;;5.60;99.90;;;;;;5033953;28;20034;-50
2022/01/27 01:00:59;;;;;;;41.30;20.20;;;5.60;99.90;;;;;;5033955;28;20124;-52
2022/01/27 01:03:36;;;;;;;41.25;20.20;;;5.60;99.90;;;;;;5033501;28;20049;-50
2022/01/27 01:06:48;;;;;;;40.22;19.88;;;5.70;99.90;;;;;;5033428;28;20041;-51
2022/01/27 01:09:39;;;;;;;41.15;19.52;;;5.70;99.90;;;;;;5027538;28;20072;-50
2022/01/27 01:12:11;;;;;;;35.25;18.45;;;5.70;99.90;;;;;;5033344;28;20049;-50
2022/01/27 01:17:29;;;;;;;44.67;20.05;;;5.70;99.90;;;;;;5033220;28;20171;-51
2022/01/27 01:20:20;;;;;;;32.28;17.45;;;5.80;99.90;;;;;;5033347;28;20082;-50
2022/01/27 01:31:12;;;;;;;39.00;19.20;;;5.80;99.90;;;;;;5012324;28;20052;-51
2022/01/27 01:33:40;;;;;;;35.78;17.13;;;5.80;99.90;;;;;;5011738;28;20092;-53
2022/01/27 01:36:14;;;;;;;37.53;18.50;;;5.80;99.90;;;;;;5013260;28;20045;-51
2022/01/27 01:38:41;;;;;;;38.58;18.33;;;5.80;99.90;;;;;;5012976;28;20042;-53
2022/01/27 01:41:07;;;;;;;34.45;18.55;;;5.80;99.90;;;;;;5026583;28;20060;-55
2022/01/27 01:43:33;;;;;;;38.55;19.95;;;5.80;99.90;;;;;;5032279;28;20038;-53
2022/01/27 01:45:58;;;;;;;37.33;20.42;;;5.80;99.90;;;;;;5027391;28;20100;-53
2022/01/27 01:48:24;;;;;;;37.85;19.35;;;5.80;99.90;;;;;;5026167;28;20567;-52
2022/01/27 01:50:49;;;;;;;37.00;18.48;;;5.80;99.90;;;;;;5021634;28;20386;-52
2022/01/27 01:53:17;;;;;;;37.55;20.13;;;5.80;99.90;;;;;;5026139;28;20037;-51
2022/01/27 01:55:43;;;;;;;40.33;19.65;;;5.80;99.90;;;;;;5022549;28;20034;-52
2022/01/27 01:58:09;;;;;;;39.33;20.15;;;5.80;99.90;;;;;;5027247;28;20136;-51
2022/01/27 02:00:34;;;;;;;41.15;19.95;;;5.80;99.90;;;;;;5024307;28;20095;-52
2022/01/27 02:03:00;;;;;;;41.13;21.30;;;5.80;99.90;;;;;;5032257;28;20068;-53
2022/01/27 02:05:30;;;;;;;39.67;20.40;;;5.80;99.90;;;;;;5031023;28;20068;-52
2022/01/27 02:08:28;;;;;;;37.40;18.90;;;5.80;99.90;;;;;;5025602;28;20075;-52
2022/01/27 02:19:21;;;;;;;40.58;20.38;;;5.80;99.90;;;;;;5032188;28;20049;-52
2022/01/27 02:21:48;;;;;;;39.80;19.40;;;5.80;99.90;;;;;;5032010;28;20041;-51
2022/01/27 02:24:15;;;;;;;45.33;21.45;;;5.80;99.90;;;;;;5032206;28;20154;-54
2022/01/27 02:26:41;;;;;;;44.97;22.20;;;5.80;99.90;;;;;;5032176;28;20049;-51
2022/01/27 02:29:08;;;;;;;47.15;20.25;;;5.70;99.90;;;;;;5032166;28;20096;-52
2022/01/27 02:31:33;;;;;;;34.80;18.75;;;5.70;99.90;;;;;;5034616;28;20072;-51
2022/01/27 02:34:00;;;;;;;37.88;17.75;;;5.70;99.90;;;;;;5035056;23;20452;-53
2022/01/27 02:36:26;;;;;;;38.10;20.48;;;5.80;99.90;;;;;;5009659;28;20038;-54
2022/01/27 02:38:52;;;;;;;41.67;20.73;;;5.70;99.90;;;;;;5006576;28;20061;-53
2022/01/27 02:41:22;;;;;;;41.70;21.45;;;5.70;99.90;;;;;;4993838;28;20065;-53
2022/01/27 02:43:47;;;;;;;42.42;20.52;;;5.70;99.90;;;;;;5007200;28;20137;-53
2022/01/27 02:46:20;;;;;;;42.30;20.65;;;5.70;99.90;;;;;;5012102;28;20129;-53
2022/01/27 02:48:46;;;;;;;43.60;19.63;;;5.70;99.90;;;;;;5011710;28;20497;-53
2022/01/27 02:51:11;;;;;;;40.38;18.38;;;5.70;99.90;;;;;;5003873;28;20034;-53
2022/01/27 02:53:37;;;;;;;41.88;20.52;;;5.80;99.90;;;;;;5011858;28;20041;-53
2022/01/27 02:56:03;;;;;;;46.22;20.60;;;5.70;99.90;;;;;;5011789;28;20502;-53
2022/01/27 02:58:29;;;;;;;41.33;19.20;;;5.80;99.90;;;;;;5011285;28;20077;-51
2022/01/27 03:00:54;;;;;;;38.75;19.02;;;5.70;99.90;;;;;;5011546;28;20056;-53
2022/01/27 03:03:20;;;;;;;38.60;19.83;;;5.80;99.90;;;;;;5011591;28;20049;-51
2022/01/27 03:05:45;;;;;;;45.80;21.63;;;5.80;99.90;;;;;;5007402;28;20115;-51
2022/01/27 03:08:11;;;;;;;41.00;21.25;;;5.80;99.90;;;;;;4996679;28;20521;-51
2022/01/27 03:10:45;;;;;;;41.80;21.13;;;5.80;99.90;;;;;;5010696;28;20050;-51
2022/01/27 03:13:10;;;;;;;41.10;20.05;;;5.70;99.90;;;;;;5011617;28;20532;-52
2022/01/27 03:15:36;;;;;;;41.38;20.77;;;5.80;99.90;;;;;;5011512;28;20046;-52
2022/01/27 03:18:01;;;;;;;43.20;20.65;;;5.80;99.90;;;;;;5011541;28;20081;-51
2022/01/27 03:20:32;;;;;;;44.03;22.17;;;5.80;99.90;;;;;;5011884;28;20034;-51
2022/01/27 03:22:59;;;;;;;41.00;19.55;;;5.80;99.90;;;;;;5010444;28;20050;-51
2022/01/27 03:25:25;;;;;;;42.30;21.65;;;5.80;99.90;;;;;;5011102;28;20049;-51
2022/01/27 03:27:50;;;;;;;40.55;21.40;;;5.80;99.90;;;;;;5011649;28;20141;-51
2022/01/27 03:30:17;;;;;;;40.53;20.77;;;5.80;99.90;;;;;;5009968;28;20037;-53
2022/01/27 03:32:43;;;;;;;43.83;20.65;;;5.80;99.90;;;;;;5000425;28;20068;-52
2022/01/27 03:35:09;;;;;;;42.58;21.95;;;5.80;99.90;;;;;;5005251;28;20049;-51
2022/01/27 03:37:34;;;;;;;42.17;20.50;;;5.80;99.90;;;;;;5011655;28;20038;-51
2022/01/27 03:40:00;;;;;;;37.95;19.73;;;5.80;99.90;;;;;;5011124;28;20569;-52
2022/01/27 03:42:27;;;;;;;40.10;20.60;;;5.80;99.90;;;;;;5010331;28;20502;-51
2022/01/27 03:44:52;;;;;;;36.42;18.83;;;5.80;99.90;;;;;;5000127;28;20393;-51
2022/01/27 03:47:18;;;;;;;41.72;20.77;;;5.70;99.90;;;;;;4995566;28;20034;-51
2022/01/27 03:49:43;;;;;;;43.80;20.85;;;5.70;99.90;;;;;;5002540;28;20042;-53
2022/01/27 03:52:09;;;;;;;41.03;19.65;;;5.70;99.90;;;;;;5010417;28;20666;-52
2022/01/27 03:54:34;;;;;;;44.08;20.17;;;5.70;99.90;;;;;;5014609;28;20048;-52
2022/01/27 03:57:00;;;;;;;40.33;20.88;;;5.70;99.90;;;;;;5013913;28;20134;-50
2022/01/27 03:59:26;;;;;;;42.47;20.98;;;5.70;99.90;;;;;;5010098;28;20065;-53
2022/01/27 04:01:53;;;;;;;46.45;22.75;;;5.70;99.90;;;;;;5006790;28;20049;-52
2022/01/27 04:04:18;;;;;;;45.58;21.50;;;5.70;99.90;;;;;;5014878;28;20401;-51
2022/01/27 04:06:44;;;;;;;43.65;22.13;;;5.70;99.90;;;;;;5014645;28;20038;-52
2022/01/27 04:09:11;;;;;;;46.20;21.38;;;5.60;99.90;;;;;;5014860;28;20042;-51
2022/01/27 04:11:40;;;;;;;46.00;21.60;;;5.60;99.90;;;;;;5014730;28;20172;-51
2022/01/27 04:14:06;;;;;;;43.47;21.25;;;5.60;99.90;;;;;;5014325;28;20087;-52
2022/01/27 04:16:31;;;;;;;38.83;20.00;;;5.70;99.90;;;;;;5014870;28;20034;-52
2022/01/27 04:18:57;;;;;;;48.17;22.30;;;5.60;99.90;;;;;;5014705;28;20490;-52
2022/01/27 04:21:22;;;;;;;42.35;21.02;;;5.70;99.90;;;;;;5014560;28;20474;-51
2022/01/27 04:23:49;;;;;;;43.70;21.40;;;5.60;99.90;;;;;;5014361;28;20046;-52
2022/01/27 04:26:18;;;;;;;43.15;21.02;;;5.70;99.90;;;;;;5014509;28;20064;-52
2022/01/27 04:28:45;;;;;;;44.20;20.17;;;5.70;99.90;;;;;;5014417;28;20404;-52
2022/01/27 04:31:11;;;;;;;43.88;19.85;;;5.70;99.90;;;;;;5011921;28;20050;-52
2022/01/27 04:33:38;;;;;;;44.92;19.83;;;5.70;99.90;;;;;;5008907;28;20057;-52
2022/01/27 04:36:11;;;;;;;41.97;20.52;;;5.70;99.90;;;;;;5007594;28;20034;-52
2022/01/27 04:38:53;;;;;;;43.25;19.38;;;5.70;99.90;;;;;;5013284;28;20046;-51
2022/01/27 04:41:47;;;;;;;41.17;21.25;;;5.70;99.90;;;;;;5014193;28;20092;-53
2022/01/27 04:44:22;;;;;;;45.67;21.20;;;5.70;99.90;;;;;;5004967;28;20125;-52
2022/01/27 04:49:44;;;;;;;46.25;20.25;;;5.80;99.90;;;;;;5005169;28;20553;-52
2022/01/27 04:52:10;;;;;;;42.25;20.77;;;5.80;99.90;;;;;;5009774;28;20046;-52
2022/01/27 04:54:52;;;;;;;43.15;20.55;;;5.80;99.90;;;;;;4995196;28;20042;-52
2022/01/27 04:57:18;;;;;;;41.25;19.67;;;5.80;99.90;;;;;;4994710;28;20045;-51
2022/01/27 04:59:45;;;;;;;45.10;20.85;;;5.80;99.90;;;;;;5008995;28;20030;-52
2022/01/27 05:02:19;;;;;;;46.13;21.58;;;5.80;99.90;;;;;;5008472;28;20421;-53
2022/01/27 05:04:49;;;;;;;41.35;19.58;;;5.80;99.90;;;;;;5004297;28;20042;-52
2022/01/27 05:07:14;;;;;;;42.88;19.45;;;5.80;99.90;;;;;;5013872;28;20038;-52
2022/01/27 05:09:50;;;;;;;41.53;20.33;;;5.80;99.90;;;;;;5013683;28;20490;-52
2022/01/27 05:12:25;;;;;;;42.95;19.50;;;5.80;99.90;;;;;;5013622;28;20045;-52
2022/01/27 05:14:51;;;;;;;37.33;19.05;;;5.80;99.90;;;;;;5012324;28;20088;-54
2022/01/27 05:17:18;;;;;;;45.03;19.65;;;5.80;99.90;;;;;;5012993;28;20152;-52
2022/01/27 05:19:47;;;;;;;46.50;20.55;;;5.70;99.90;;;;;;5013523;28;20461;-52
2022/01/27 05:22:13;;;;;;;42.08;19.88;;;5.70;99.90;;;;;;5013304;28;20045;-52
2022/01/27 05:24:39;;;;;;;45.20;19.92;;;5.70;99.90;;;;;;5013137;28;20429;-53
2022/01/27 05:27:05;;;;;;;47.78;20.15;;;5.70;99.90;;;;;;5013231;28;20053;-51
2022/01/27 05:29:30;;;;;;;42.10;19.80;;;5.70;99.90;;;;;;5013492;28;20050;-52
2022/01/27 05:31:56;;;;;;;40.60;18.73;;;5.80;99.90;;;;;;5012662;28;20056;-52
2022/01/27 05:34:21;;;;;;;41.65;18.65;;;5.80;99.90;;;;;;5012924;28;20040;-52
2022/01/27 05:36:47;;;;;;;41.28;20.00;;;5.80;99.90;;;;;;5013147;28;20041;-55
2022/01/27 05:39:12;;;;;;;40.20;18.48;;;5.80;99.90;;;;;;5012398;28;20110;-52
2022/01/27 05:41:38;;;;;;;39.55;19.45;;;5.80;99.90;;;;;;5013078;28;20044;-53
2022/01/27 05:44:04;;;;;;;39.85;18.80;;;5.90;99.90;;;;;;5012897;28;20383;-52
2022/01/27 05:46:30;;;;;;;36.92;17.65;;;5.90;99.90;;;;;;5013264;28;20050;-53
2022/01/27 05:48:55;;;;;;;39.78;18.38;;;5.90;99.90;;;;;;5012245;28;20069;-53
2022/01/27 05:51:21;;;;;;;35.78;17.60;;;5.90;99.90;;;;;;5010188;28;20054;-53
2022/01/27 05:53:48;;;;;;;36.38;17.88;;;5.90;99.90;;;;;;5012353;28;20100;-53
2022/01/27 05:56:13;;;;;;;36.60;18.10;;;5.90;99.90;;;;;;5011336;28;20049;-53
2022/01/27 05:58:39;;;;;;;40.13;19.70;;;5.90;99.90;;;;;;5009717;28;20042;-55
2022/01/27 06:01:04;;;;;;;38.10;18.33;;;5.90;99.90;;;;;;5011701;28;20037;-53
2022/01/27 06:03:30;;;;;;;40.03;19.63;;;5.90;99.90;;;;;;5011661;28;20038;-54
2022/01/27 06:05:56;;;;;;;41.42;18.67;;;5.90;99.90;;;;;;5012390;28;20037;-53
2022/01/27 06:08:21;;;;;;;48.13;19.92;;;5.90;99.90;;;;;;5010726;28;20132;-53
2022/01/27 06:10:47;;;;;;;43.17;20.02;;;5.80;99.90;;;;;;5007297;28;20035;-53
2022/01/27 06:13:12;;;;;;;46.20;19.63;;;5.80;99.90;;;;;;5006870;28;20720;-52
2022/01/27 06:15:38;;;;;;;44.47;19.48;;;5.80;99.90;;;;;;5010151;28;20482;-52
2022/01/27 06:18:04;;;;;;;45.50;21.08;;;5.80;99.90;;;;;;5011817;28;20113;-52
2022/01/27 06:20:30;;;;;;;49.55;19.50;;;5.80;99.90;;;;;;5011960;28;20041;-51
2022/01/27 06:22:59;;;;;;;44.80;20.60;;;5.80;99.90;;;;;;5011907;28;20045;-53
2022/01/27 06:25:27;;;;;;;46.92;20.13;;;5.80;99.90;;;;;;5011349;28;20117;-51
2022/01/27 06:27:53;;;;;;;48.33;20.95;;;5.70;99.90;;;;;;5012290;28;20113;-51
2022/01/27 06:30:19;;;;;;;46.95;20.58;;;5.70;99.90;;;;;;5012092;28;20521;-51
2022/01/27 06:32:45;;;;;;;57.13;22.52;;;5.70;99.90;;;;;;5010958;28;20038;-51
2022/01/27 06:35:10;;;;;;;47.33;21.15;;;5.70;99.90;;;;;;4994889;28;20089;-54
2022/01/27 06:37:37;;;;;;;53.03;21.80;;;5.70;99.90;;;;;;5010213;28;20038;-53
2022/01/27 06:40:04;;;;;;;50.63;21.23;;;5.60;99.90;;;;;;5005734;28;20109;-53
2022/01/27 06:42:30;;;;;;;50.47;21.60;;;5.70;99.90;;;;;;5008221;28;20038;-52
2022/01/27 06:44:55;;;;;;;51.30;21.33;;;5.70;99.90;;;;;;5012015;28;20049;-52
2022/01/27 06:47:21;;;;;;;51.55;21.38;;;5.70;99.90;;;;;;5011851;28;20053;-51
2022/01/27 06:49:46;;;;;;;51.78;21.20;;;5.70;99.90;;;;;;5011953;28;20037;-51
2022/01/27 06:52:12;;;;;;;49.95;21.52;;;5.70;99.90;;;;;;5011140;28;20054;-52
2022/01/27 06:54:38;;;;;;;47.95;21.52;;;5.70;99.90;;;;;;5010277;28;20113;-52
2022/01/27 06:57:05;;;;;;;50.10;21.60;;;5.70;99.90;;;;;;4992519;28;20475;-51
2022/01/27 06:59:31;;;;;;;52.17;22.15;;;5.70;99.90;;;;;;5008487;28;20046;-52
2022/01/27 07:01:56;;;;;;;49.40;20.98;;;5.70;99.90;;;;;;5006607;28;20037;-52
2022/01/27 07:04:22;;;;;;;51.38;21.17;;;5.80;99.90;;;;;;4994834;28;20042;-53
2022/01/27 07:06:49;;;;;;;44.58;20.30;;;5.70;99.90;;;;;;4992146;28;20061;-53
2022/01/27 07:09:14;;;;;;;45.85;21.48;;;5.70;99.90;;;;;;4992048;28;20113;-52
2022/01/27 07:11:40;;;;;;;43.25;20.27;;;5.70;99.90;;;;;;5000068;28;20145;-52
2022/01/27 07:14:05;;;;;;;46.63;20.92;;;5.70;99.90;;;;;;5011634;28;20508;-52
2022/01/27 07:16:33;;;;;;;46.55;20.58;;;5.80;99.90;;;;;;5012049;28;20057;-52
2022/01/27 07:18:58;;;;;;;45.63;20.63;;;5.80;99.90;;;;;;5011936;28;20042;-52
2022/01/27 07:21:24;;;;;;;41.08;18.90;;;5.80;99.90;;;;;;5011470;28;20045;-51
2022/01/27 07:23:49;;;;;;;46.58;21.13;;;5.80;99.90;;;;;;5014662;28;20046;-52
2022/01/27 07:26:15;;;;;;;45.15;19.40;;;5.90;99.90;;;;;;5015789;28;20045;-51
2022/01/27 07:28:42;;;;;;;43.75;19.27;;;5.90;99.90;;;;;;5015738;28;20062;-52
2022/01/27 07:31:07;;;;;;;44.80;18.25;;;5.80;99.90;;;;;;5002832;28;20053;-51
2022/01/27 07:33:33;;;;;;;43.88;19.17;;;5.90;99.90;;;;;;5003950;28;20042;-51
2022/01/27 07:35:58;;;;;;;42.45;19.02;;;5.90;99.90;;;;;;5001673;28;20044;-52
2022/01/27 07:38:25;;;;;;;34.97;16.90;;;5.90;99.90;;;;;;4995706;28;20696;-51
2022/01/27 07:40:50;;;;;;;33.45;16.05;;;5.90;99.90;;;;;;4996085;28;20471;-51
2022/01/27 07:43:16;;;;;;;37.42;16.73;;;6.00;99.90;;;;;;5015013;28;20069;-52
2022/01/27 07:45:42;;;;;;;42.90;17.90;;;5.90;99.90;;;;;;5015162;28;20034;-51
2022/01/27 07:48:08;;;;;;;38.13;17.25;;;5.90;99.90;;;;;;5015273;28;20482;-52
2022/01/27 07:50:33;;;;;;;43.20;18.92;;;6.00;99.90;;;;;;5015227;28;20033;-52
2022/01/27 07:52:59;;;;;;;37.88;17.45;;;6.00;99.90;;;;;;5014782;28;20038;-51
2022/01/27 07:55:26;;;;;;;37.70;17.40;;;6.00;99.90;;;;;;5015125;28;20046;-52
2022/01/27 07:57:51;;;;;;;41.28;18.95;;;6.10;99.90;;;;;;5015233;28;20061;-52
2022/01/27 08:00:17;;;;;;;38.10;17.80;;;6.10;99.90;;;;;;5015146;28;20029;-52
2022/01/27 08:02:43;;;;;;;38.55;17.33;;;6.10;99.90;;;;;;5014808;28;20034;-52
2022/01/27 08:05:09;;;;;;;41.50;17.73;;;6.10;99.90;;;;;;5006994;28;20120;-52
2022/01/27 08:07:35;;;;;;;38.53;16.95;;;6.20;99.90;;;;;;4994155;28;20511;-54
2022/01/27 08:10:00;;;;;;;49.03;17.63;;;6.20;99.90;;;;;;4994572;28;20077;-53
2022/01/27 08:12:26;;;;;;;35.60;16.90;;;6.30;99.90;;;;;;4992905;28;20117;-55
2022/01/27 08:14:51;;;;;;;45.67;17.08;;;6.30;99.90;;;;;;4995475;28;20168;-54
2022/01/27 08:17:17;;;;;;;39.85;17.20;;;6.40;99.90;;;;;;4994457;28;20125;-52
2022/01/27 08:19:44;;;;;;;41.83;17.20;;;6.50;99.90;;;;;;4998389;28;20579;-53
2022/01/27 08:22:10;;;;;;;42.47;17.42;;;6.50;99.90;;;;;;4995479;28;20506;-55
2022/01/27 08:24:36;;;;;;;47.60;16.98;;;6.60;99.90;;;;;;4996666;28;20078;-55
2022/01/27 08:27:05;;;;;;;46.78;17.05;;;6.70;99.90;;;;;;4995843;28;20046;-54
2022/01/27 08:29:37;;;;;;;36.92;15.07;;;6.70;99.90;;;;;;4995430;28;20050;-55
2022/01/27 08:32:05;;;;;;;43.08;15.73;;;6.80;99.90;;;;;;5000939;28;20046;-52
2022/01/27 08:34:36;;;;;;;38.55;14.40;;;6.80;99.90;;;;;;5005461;28;20486;-56
2022/01/27 08:37:03;;;;;;;46.63;15.32;;;6.90;99.90;;;;;;4994270;28;20037;-56
2022/01/27 08:39:29;;;;;;;44.00;15.18;;;6.90;99.90;;;;;;4996554;28;20034;-56
2022/01/27 08:41:55;;;;;;;34.35;14.02;;;6.90;99.90;;;;;;4993935;28;20121;-56
2022/01/27 08:44:21;;;;;;;36.90;13.68;;;6.90;99.90;;;;;;4995069;28;20486;-56
2022/01/27 08:46:46;;;;;;;38.58;14.10;;;7.00;99.90;;;;;;4994233;28;20506;-56
2022/01/27 08:49:12;;;;;;;40.25;14.60;;;7.00;99.90;;;;;;4993512;28;20050;-55
2022/01/27 08:51:38;;;;;;;36.60;14.27;;;7.00;99.90;;;;;;4993743;28;20093;-55
2022/01/27 08:54:04;;;;;;;39.17;13.88;;;7.00;99.90;;;;;;4993210;28;20031;-57
2022/01/27 08:56:30;;;;;;;35.75;13.05;;;7.00;99.90;;;;;;4993886;28;20037;-56
2022/01/27 08:58:56;;;;;;;41.83;14.48;;;7.10;99.90;;;;;;4993427;28;20494;-54
2022/01/27 09:01:23;;;;;;;32.70;14.13;;;7.10;99.90;;;;;;4996060;28;20042;-56
2022/01/27 09:03:50;;;;;;;39.80;15.38;;;7.10;99.90;;;;;;4993247;28;20109;-57
2022/01/27 09:06:18;;;;;;;36.55;13.73;;;7.10;99.90;;;;;;5001013;28;20037;-57
2022/01/27 09:08:44;;;;;;;35.35;14.25;;;7.20;99.90;;;;;;5013984;28;20052;-56
2022/01/27 09:11:10;;;;;;;40.13;13.60;;;7.20;99.90;;;;;;5013725;28;20129;-57
2022/01/27 09:13:37;;;;;;;32.22;13.25;;;7.20;99.90;;;;;;4994601;28;20034;-57
2022/01/27 09:16:04;;;;;;;40.30;13.18;;;7.30;99.90;;;;;;4995013;28;20084;-57
2022/01/27 09:18:30;;;;;;;41.30;13.45;;;7.30;99.90;;;;;;4992551;28;20042;-57
2022/01/27 09:20:58;;;;;;;33.67;12.85;;;7.30;99.90;;;;;;4993056;28;20038;-56
2022/01/27 09:23:23;;;;;;;43.10;12.90;;;7.40;99.90;;;;;;4992755;28;20157;-57
2022/01/27 09:25:50;;;;;;;34.53;12.75;;;7.40;99.90;;;;;;4994324;28;20129;-56
2022/01/27 09:28:16;;;;;;;34.05;11.23;;;7.40;99.90;;;;;;4991472;28;20125;-56
2022/01/27 09:30:43;;;;;;;42.08;11.27;;;7.50;99.90;;;;;;4992854;28;20053;-57
2022/01/27 09:33:09;;;;;;;29.42;11.88;;;7.50;99.90;;;;;;4993719;28;20051;-57
2022/01/27 09:35:35;;;;;;;33.22;10.13;;;7.50;99.90;;;;;;4992590;28;20046;-57
2022/01/27 09:38:01;;;;;;;27.92;10.65;;;7.60;99.90;;;;;;4991226;28;20042;-57
2022/01/27 09:40:28;;;;;;;31.02;10.23;;;7.50;99.90;;;;;;5000409;28;20160;-57
2022/01/27 09:42:55;;;;;;;32.13;10.93;;;7.60;99.90;;;;;;5000320;28;20049;-57
2022/01/27 09:45:23;;;;;;;24.10;8.85;;;7.60;99.90;;;;;;4997996;28;20145;-58
2022/01/27 09:48:00;;;;;;;30.13;10.20;;;7.70;99.90;;;;;;4992980;28;20041;-58
2022/01/27 09:51:23;;;;;;;33.83;10.10;;;7.70;99.90;;;;;;4993614;28;20038;-57
2022/01/27 09:53:20;;;;;;;28.40;9.68;;;7.70;99.90;;;;;;4997229;28;20049;-56
2022/01/27 09:55:45;;;;;;;22.25;9.27;;;7.80;99.90;;;;;;5010997;28;20037;-58
2022/01/27 09:58:11;;;;;;;26.45;9.65;;;7.80;99.90;;;;;;4997782;28;20042;-57
2022/01/27 10:00:37;;;;;;;33.10;9.88;;;7.80;99.90;;;;;;4999308;28;20048;-57
2022/01/27 10:03:14;;;;;;;26.65;8.77;;;7.80;99.90;;;;;;5007611;28;20044;-57
2022/01/27 10:05:41;;;;;;;29.33;9.52;;;7.80;99.90;;;;;;4998782;28;20046;-58
2022/01/27 10:08:18;;;;;;;29.42;8.60;;;7.80;99.90;;;;;;5121952;27;20384;-55
2022/01/27 10:10:46;;;;;;;26.27;8.80;;;7.90;99.90;;;;;;5120535;28;20096;-57
2022/01/27 10:13:30;;;;;;;27.10;9.00;;;7.90;99.90;;;;;;5127428;27;20096;-57
2022/01/27 10:15:56;;;;;;;23.50;9.13;;;7.90;99.90;;;;;;5122869;28;20384;-57
2022/01/27 10:18:25;;;;;;;36.20;9.07;;;7.90;99.90;;;;;;5111655;27;20035;-57
2022/01/27 10:20:51;;;;;;;27.30;8.35;;;7.90;99.90;;;;;;5109064;28;20487;-57
2022/01/27 10:23:18;;;;;;;30.90;8.45;;;7.90;99.90;;;;;;5108920;28;20442;-57
2022/01/27 10:25:59;;;;;;;23.20;7.90;;;7.90;99.90;;;;;;5109034;28;20118;-55
2022/01/27 10:31:19;;;;;;;22.23;8.15;;;8.00;99.90;;;;;;5129543;28;20040;-57
2022/01/27 10:33:52;;;;;;;26.10;8.10;;;8.00;99.90;;;;;;5129164;28;20080;-57
2022/01/27 10:36:19;;;;;;;21.73;8.55;;;8.00;99.90;;;;;;5124463;28;20043;-57
2022/01/27 10:38:45;;;;;;;21.80;7.30;;;8.00;99.90;;;;;;5119595;28;20465;-58
2022/01/27 10:41:10;;;;;;;29.85;8.05;;;8.00;99.90;;;;;;5120577;28;20510;-57
2022/01/27 10:43:36;;;;;;;23.85;7.25;;;8.10;99.90;;;;;;5128777;28;20126;-57
2022/01/27 10:46:10;;;;;;;28.02;8.57;;;8.10;99.90;;;;;;5128737;28;20043;-57
2022/01/27 10:48:47;;;;;;;20.92;7.32;;;8.10;99.90;;;;;;5116250;28;20079;-57
2022/01/27 10:51:23;;;;;;;27.70;7.53;;;8.20;99.90;;;;;;5110888;28;20473;-57
2022/01/27 10:54:02;;;;;;;29.25;8.18;;;8.20;99.90;;;;;;5116819;28;20114;-57
2022/01/27 10:56:31;;;;;;;24.92;7.05;;;8.20;99.90;;;;;;5128263;27;20487;-57
2022/01/27 10:58:58;;;;;;;23.10;7.20;;;8.20;99.90;;;;;;5129111;28;20043;-57
2022/01/27 11:01:57;;;;;;;24.02;7.65;;;8.20;99.90;;;;;;5117850;27;20525;-57
2022/01/27 11:04:34;;;;;;;25.48;7.15;;;8.20;99.90;;;;;;5109353;28;20043;-57
2022/01/27 11:07:01;;;;;;;26.30;7.38;;;8.30;99.90;;;;;;5109394;28;20032;-57
2022/01/27 11:09:29;;;;;;;17.42;6.65;;;8.30;99.90;;;;;;5115224;28;20070;-58
2022/01/27 11:11:58;;;;;;;23.30;7.38;;;8.30;99.90;;;;;;5114489;28;20036;-57
2022/01/27 11:14:25;;;;;;;30.05;7.80;;;8.30;99.90;;;;;;5118479;28;20395;-57
2022/01/27 11:16:56;;;;;;;21.80;7.10;;;8.30;99.90;;;;;;5112848;28;20051;-58
2022/01/27 11:22:11;;;;;;;22.70;6.95;;;8.40;99.90;;;;;;5096983;28;20036;-57
2022/01/27 11:27:22;;;;;;;23.52;6.72;;;8.50;99.90;;;;;;5098591;28;20044;-57
2022/01/27 11:29:57;;;;;;;18.98;6.60;;;8.60;99.90;;;;;;5099367;28;20035;-57
2022/01/27 11:32:34;;;;;;;22.90;6.75;;;8.60;99.90;;;;;;5100881;28;20043;-58
2022/01/27 11:34:59;;;;;;;17.15;6.53;;;8.70;99.90;;;;;;5104354;28;20043;-57
2022/01/27 11:37:38;;;;;;;17.85;6.10;;;8.80;99.90;;;;;;5101371;28;20184;-57
2022/01/27 11:40:09;;;;;;;21.58;6.85;;;8.80;99.90;;;;;;5106741;28;20031;-58
2022/01/27 11:42:34;;;;;;;22.25;6.90;;;8.80;99.90;;;;;;5113222;28;20479;-58
2022/01/27 11:45:37;;;;;;;24.15;6.22;;;8.90;99.90;;;;;;5112413;28;20110;-57
2022/01/27 11:48:09;;;;;;;19.58;6.13;;;8.80;99.90;;;;;;5102216;28;20044;-57
2022/01/27 11:53:40;;;;;;;21.67;5.03;;;8.90;99.90;;;;;;5111479;28;20044;-58
2022/01/27 11:56:07;;;;;;;22.83;5.07;;;8.90;99.90;;;;;;5108711;28;20062;-57
2022/01/27 11:58:48;;;;;;;19.10;5.47;;;8.90;99.90;;;;;;5113142;28;20047;-58
2022/01/27 12:01:22;;;;;;;16.35;4.95;;;9.00;99.90;;;;;;5114081;28;20039;-57
2022/01/27 12:04:04;;;;;;;21.30;4.75;;;9.00;99.90;;;;;;5100893;28;20040;-57
2022/01/27 12:06:34;;;;;;;16.08;3.97;;;9.10;99.90;;;;;;5095509;28;20114;-58
2022/01/27 12:09:18;;;;;;;15.88;4.25;;;9.10;99.90;;;;;;5099087;28;20127;-57
2022/01/27 12:11:55;;;;;;;15.88;4.22;;;9.20;99.90;;;;;;5105501;28;20055;-57
2022/01/27 12:14:33;;;;;;;20.48;4.18;;;9.20;99.90;;;;;;5102111;28;20047;-58
2022/01/27 12:17:12;;;;;;;14.90;4.10;;;9.20;99.90;;;;;;5105582;28;20414;-58
2022/01/27 12:19:56;;;;;;;16.92;3.83;;;9.20;99.90;;;;;;5097754;28;20461;-58
2022/01/27 12:22:46;;;;;;;15.05;4.05;;;9.20;99.90;;;;;;5099095;28;20044;-58
2022/01/27 12:25:13;;;;;;;17.13;4.65;;;9.20;99.90;;;;;;5106420;27;20423;-57
2022/01/27 12:27:40;;;;;;;17.50;4.07;;;9.20;99.90;;;;;;5108026;28;20044;-57
2022/01/27 12:30:12;;;;;;;19.30;3.85;;;9.20;99.90;;;;;;5102041;28;20063;-58
2022/01/27 12:32:37;;;;;;;14.80;3.63;;;9.20;99.90;;;;;;5107965;28;20032;-58
2022/01/27 12:35:07;;;;;;;13.10;3.63;;;9.30;99.90;;;;;;5104054;28;20050;-58
2022/01/27 12:37:34;;;;;;;16.08;4.38;;;9.30;99.90;;;;;;5111792;28;20039;-56
2022/01/27 12:40:22;;;;;;;19.50;4.50;;;9.20;99.90;;;;;;5103359;28;20032;-58
2022/01/27 12:43:01;;;;;;;11.93;3.58;;;9.20;99.90;;;;;;5101374;28;20031;-58
2022/01/27 12:45:32;;;;;;;15.70;3.60;;;9.20;99.90;;;;;;5113053;28;20040;-58
2022/01/27 12:48:03;;;;;;;20.75;4.50;;;9.20;99.90;;;;;;5113099;27;20035;-57
2022/01/27 12:50:29;;;;;;;20.77;3.80;;;9.20;99.90;;;;;;5107538;28;20074;-57
2022/01/27 12:53:00;;;;;;;18.98;4.47;;;9.20;99.90;;;;;;5107441;28;20076;-58
2022/01/27 12:55:34;;;;;;;17.25;3.60;;;9.20;99.90;;;;;;5095659;28;20541;-57
2022/01/27 12:58:03;;;;;;;14.90;3.55;;;9.20;99.90;;;;;;5106041;28;20067;-56
2022/01/27 13:00:37;;;;;;;16.25;3.78;;;9.20;99.90;;;;;;5112407;28;20499;-57
2022/01/27 13:03:03;;;;;;;19.50;3.38;;;9.10;99.90;;;;;;5105908;28;20415;-58
2022/01/27 13:05:36;;;;;;;14.82;3.65;;;9.20;99.90;;;;;;5107152;28;20036;-57
2022/01/27 13:08:05;;;;;;;18.27;3.60;;;9.20;99.90;;;;;;5106539;28;20039;-58
2022/01/27 13:10:30;;;;;;;16.67;3.40;;;9.20;99.90;;;;;;5106162;27;20115;-58
2022/01/27 13:13:12;;;;;;;20.98;4.28;;;9.20;99.90;;;;;;5106619;28;20114;-57
2022/01/27 13:15:37;;;;;;;16.40;3.80;;;9.20;99.90;;;;;;5112538;28;20093;-57
2022/01/27 13:18:28;;;;;;;18.83;4.20;;;9.20;99.90;;;;;;5108833;28;20035;-58
2022/01/27 13:20:57;;;;;;;16.75;3.60;;;9.20;99.90;;;;;;5105432;28;20028;-58
2022/01/27 13:23:33;;;;;;;12.07;3.42;;;9.20;99.90;;;;;;5108680;28;20071;-58
2022/01/27 13:26:04;;;;;;;19.25;4.10;;;9.20;99.90;;;;;;5106059;28;20479;-57